Time;durP1;ratioP1;P1;durP2;ratioP2;P2;SDS_P1;SDS_P2;PMS_P1;PMS_P2;Temp;Humidity;BMP_temperature;BMP_pressure;BME280_temperature;BME280_humidity;BME280_pressure;Samples;Min_cycle;Max_cycle;Signal;HPM_P1;HPM_P2
2022/07/24 00:01:44;;;;;;;22.58;10.65;;;;;19.90;96728.00;;;;8367973;28;20219;-67
2022/07/24 00:05:48;;;;;;;13.43;10.48;;;;;19.80;96743.00;;;;8349479;28;20307;-66
2022/07/24 00:09:51;;;;;;;12.23;9.88;;;;;19.80;96741.00;;;;8341319;28;20312;-67
2022/07/24 00:13:54;;;;;;;18.13;9.93;;;;;19.80;96733.00;;;;8346155;28;20236;-67
2022/07/24 00:17:59;;;;;;;17.60;11.45;;;;;19.80;96735.00;;;;8345389;28;20293;-67
2022/07/24 00:22:02;;;;;;;14.25;10.05;;;;;19.80;96733.00;;;;8349547;28;20231;-68
2022/07/24 00:26:06;;;;;;;14.23;10.23;;;;;19.80;96731.00;;;;8340906;28;20309;-67
2022/07/24 00:30:10;;;;;;;12.95;10.02;;;;;19.90;96739.00;;;;8348193;28;20829;-67
2022/07/24 00:34:15;;;;;;;13.90;10.85;;;;;20.00;96733.00;;;;8342292;28;20705;-68
2022/07/24 00:38:18;;;;;;;12.70;10.57;;;;;19.90;96731.00;;;;8347786;28;20224;-67
2022/07/24 00:42:22;;;;;;;14.52;10.40;;;;;19.90;96735.00;;;;8339662;28;20228;-67
2022/07/24 00:46:25;;;;;;;13.85;10.10;;;;;19.70;96739.00;;;;8339704;28;20232;-67
2022/07/24 00:50:29;;;;;;;19.52;11.30;;;;;19.60;96730.00;;;;8336458;28;20243;-67
2022/07/24 00:54:33;;;;;;;17.10;11.73;;;;;19.70;96739.00;;;;8347076;28;20236;-66
2022/07/24 00:58:37;;;;;;;14.75;10.98;;;;;19.70;96739.00;;;;8342919;28;20684;-67
2022/07/24 01:02:40;;;;;;;12.88;10.00;;;;;19.70;96725.00;;;;8346054;28;20707;-67
2022/07/24 01:06:45;;;;;;;13.23;10.65;;;;;19.90;96723.00;;;;8368968;28;20231;-67
2022/07/24 01:10:49;;;;;;;13.82;10.65;;;;;20.00;96721.00;;;;8365853;28;20231;-66
2022/07/24 01:14:52;;;;;;;15.00;10.50;;;;;20.00;96722.00;;;;8366899;28;20231;-67
2022/07/24 01:18:55;;;;;;;12.13;9.95;;;;;19.90;96720.00;;;;8373938;28;20216;-68
2022/07/24 01:23:00;;;;;;;12.65;9.70;;;;;19.90;96723.00;;;;8378367;28;20226;-67
2022/07/24 01:27:03;;;;;;;12.75;10.45;;;;;19.90;96723.00;;;;8380806;28;20237;-67
2022/07/24 01:31:07;;;;;;;15.68;10.13;;;;;19.90;96718.00;;;;8374613;28;20310;-68
2022/07/24 01:35:10;;;;;;;17.17;12.18;;;;;19.90;96724.00;;;;8371234;28;20226;-68
2022/07/24 01:39:26;;;;;;;14.65;11.15;;;;;19.90;96728.00;;;;8371900;28;20216;-68
2022/07/24 01:43:29;;;;;;;13.48;10.63;;;;;19.80;96732.00;;;;8371671;28;20541;-69
2022/07/24 01:47:32;;;;;;;13.38;10.10;;;;;19.80;96739.00;;;;8369536;28;20220;-68
2022/07/24 01:51:36;;;;;;;14.45;10.73;;;;;19.80;96727.00;;;;8372630;28;20238;-67
2022/07/24 01:55:40;;;;;;;16.88;11.02;;;;;19.80;96725.00;;;;8377423;28;20215;-68
2022/07/24 01:59:44;;;;;;;15.02;11.50;;;;;19.80;96721.00;;;;8369175;28;20248;-67
2022/07/24 02:03:49;;;;;;;16.73;11.43;;;;;19.90;96719.00;;;;8351814;28;20233;-66
2022/07/24 02:07:57;;;;;;;15.20;11.05;;;;;19.90;96719.00;;;;8328239;28;20306;-67
2022/07/24 02:12:02;;;;;;;14.18;10.73;;;;;20.00;96721.00;;;;8337911;28;20339;-67
2022/07/24 02:16:06;;;;;;;14.15;10.60;;;;;20.10;96721.00;;;;8343085;28;20220;-67
2022/07/24 02:20:10;;;;;;;15.35;11.93;;;;;20.00;96726.00;;;;8347445;28;20220;-67
2022/07/24 02:24:14;;;;;;;15.35;11.27;;;;;19.90;96726.00;;;;8334078;28;20318;-67
2022/07/24 02:28:19;;;;;;;16.58;11.10;;;;;19.90;96722.00;;;;8338496;28;21115;-67
2022/07/24 02:32:22;;;;;;;19.60;11.20;;;;;19.80;96726.00;;;;8333869;28;20229;-67
2022/07/24 02:36:25;;;;;;;12.85;10.90;;;;;19.80;96727.00;;;;8332256;28;20233;-67
2022/07/24 02:40:29;;;;;;;14.60;11.20;;;;;19.80;96723.00;;;;8335958;28;20239;-66
2022/07/24 02:44:34;;;;;;;14.07;10.90;;;;;19.80;96729.00;;;;8334765;28;20225;-67
2022/07/24 02:48:37;;;;;;;14.98;11.50;;;;;19.80;96729.00;;;;8339591;28;20231;-67
2022/07/24 02:52:40;;;;;;;13.80;10.68;;;;;19.90;96726.00;;;;8342344;28;20221;-66
2022/07/24 02:56:44;;;;;;;16.50;11.20;;;;;20.00;96733.00;;;;8339907;28;20315;-67
2022/07/24 03:00:48;;;;;;;13.45;10.23;;;;;20.00;96726.00;;;;8335837;28;20231;-69
2022/07/24 03:05:11;;;;;;;15.45;11.18;;;;;20.00;96739.00;;;;8318754;26;20577;-67
2022/07/24 03:09:14;;;;;;;14.52;10.20;;;;;20.00;96729.00;;;;8347102;28;20231;-68
2022/07/24 03:13:17;;;;;;;16.92;12.07;;;;;19.90;96728.00;;;;8335641;28;20612;-66
2022/07/24 03:17:22;;;;;;;17.58;11.85;;;;;19.90;96726.00;;;;8313740;28;20240;-67
2022/07/24 03:21:25;;;;;;;15.73;10.63;;;;;19.70;96727.00;;;;8311149;28;20227;-67
2022/07/24 03:25:48;;;;;;;14.20;11.15;;;;;19.60;96733.00;;;;8337879;28;20228;-68
2022/07/24 03:29:52;;;;;;;14.40;11.88;;;;;19.50;96731.00;;;;8346483;28;20796;-67
2022/07/24 03:33:57;;;;;;;16.02;12.05;;;;;19.40;96722.00;;;;8346198;28;20260;-66
2022/07/24 03:38:00;;;;;;;16.02;12.25;;;;;19.30;96727.00;;;;8344442;28;20239;-66
2022/07/24 03:42:03;;;;;;;19.35;11.20;;;;;19.30;96721.00;;;;8345380;28;20764;-67
2022/07/24 03:46:07;;;;;;;18.65;11.85;;;;;19.10;96716.00;;;;8335328;28;20234;-66
2022/07/24 03:50:11;;;;;;;17.08;11.93;;;;;19.00;96721.00;;;;8336109;28;20563;-67
2022/07/24 03:54:18;;;;;;;14.90;11.10;;;;;18.80;96727.00;;;;8337151;28;20225;-67
2022/07/24 03:58:21;;;;;;;18.73;12.18;;;;;18.80;96727.00;;;;8338163;28;20233;-67
2022/07/24 04:02:24;;;;;;;17.85;11.57;;;;;18.90;96735.00;;;;8343686;28;20240;-67
2022/07/24 04:06:29;;;;;;;18.83;12.15;;;;;19.00;96745.00;;;;8334166;28;20228;-68
2022/07/24 04:10:32;;;;;;;20.65;12.38;;;;;19.20;96735.00;;;;8338915;28;20616;-68
2022/07/24 04:14:36;;;;;;;17.88;11.88;;;;;19.30;96745.00;;;;8337267;28;20246;-67
2022/07/24 04:18:39;;;;;;;22.58;12.73;;;;;19.30;96742.00;;;;8346308;28;20219;-67
2022/07/24 04:22:43;;;;;;;15.32;11.95;;;;;19.30;96750.00;;;;8342827;28;20226;-67
2022/07/24 04:26:48;;;;;;;15.50;12.07;;;;;19.40;96750.00;;;;8339986;28;20259;-68
2022/07/24 04:30:52;;;;;;;15.30;11.80;;;;;19.40;96747.00;;;;8344683;28;20243;-68
2022/07/24 04:34:56;;;;;;;15.48;11.90;;;;;19.50;96746.00;;;;8339965;28;20216;-67
2022/07/24 04:39:05;;;;;;;16.45;12.25;;;;;19.50;96755.00;;;;8343378;28;20220;-67
2022/07/24 04:43:10;;;;;;;18.52;11.95;;;;;19.50;96747.00;;;;8335131;28;20665;-66
2022/07/24 04:47:14;;;;;;;18.05;12.77;;;;;19.50;96747.00;;;;8330121;28;20286;-67
2022/07/24 04:51:17;;;;;;;14.52;11.15;;;;;19.60;96751.00;;;;8346492;28;20240;-68
2022/07/24 04:55:21;;;;;;;15.18;12.25;;;;;19.70;96750.00;;;;8335126;28;20221;-67
2022/07/24 04:59:25;;;;;;;13.35;11.25;;;;;19.70;96751.00;;;;8336401;28;20221;-66
2022/07/24 05:03:28;;;;;;;15.70;12.25;;;;;19.70;96760.00;;;;8338420;28;20330;-67
2022/07/24 05:07:31;;;;;;;16.23;12.45;;;;;19.90;96760.00;;;;8329135;28;20329;-67
2022/07/24 05:11:36;;;;;;;17.38;12.32;;;;;20.30;96765.00;;;;8325865;28;20238;-67
2022/07/24 05:15:39;;;;;;;17.00;12.45;;;;;20.70;96772.00;;;;8332573;28;20220;-67
2022/07/24 05:19:42;;;;;;;17.60;12.30;;;;;21.00;96779.00;;;;8334618;28;20224;-67
2022/07/24 05:23:46;;;;;;;17.55;12.10;;;;;21.30;96776.00;;;;8330691;28;20271;-67
2022/07/24 05:27:50;;;;;;;16.38;11.82;;;;;21.60;96774.00;;;;8326274;28;20239;-66
2022/07/24 05:31:54;;;;;;;15.85;12.27;;;;;21.90;96772.00;;;;8327930;28;20217;-68
2022/07/24 05:35:58;;;;;;;19.65;12.45;;;;;22.20;96771.00;;;;8336029;28;20220;-66
2022/07/24 05:40:01;;;;;;;13.75;11.38;;;;;22.50;96771.00;;;;8337193;28;20596;-66
2022/07/24 05:44:09;;;;;;;13.45;11.70;;;;;22.80;96766.00;;;;8324585;28;20220;-66
2022/07/24 05:48:13;;;;;;;17.05;13.00;;;;;23.20;96774.00;;;;8330094;28;20228;-67
2022/07/24 05:52:16;;;;;;;15.88;12.48;;;;;23.70;96769.00;;;;8328416;28;20220;-66
2022/07/24 05:56:19;;;;;;;15.13;12.43;;;;;24.00;96771.00;;;;8323281;28;20230;-67
2022/07/24 06:00:25;;;;;;;13.98;11.70;;;;;24.20;96775.00;;;;8333659;28;20347;-67
2022/07/24 06:04:30;;;;;;;14.05;11.45;;;;;24.30;96778.00;;;;8344134;28;20696;-67
2022/07/24 06:08:33;;;;;;;13.55;11.40;;;;;24.40;96778.00;;;;8346927;28;20236;-68
2022/07/24 06:12:41;;;;;;;14.82;11.30;;;;;24.70;96778.00;;;;8317882;28;20864;-67
2022/07/24 06:16:47;;;;;;;13.93;10.70;;;;;25.10;96776.00;;;;8315641;28;20316;-67
2022/07/24 06:20:50;;;;;;;11.98;10.68;;;;;25.50;96776.00;;;;8314971;28;20229;-66
2022/07/24 06:24:54;;;;;;;12.88;11.30;;;;;26.00;96773.00;;;;8316265;28;20229;-67
2022/07/24 06:28:58;;;;;;;15.48;11.55;;;;;26.30;96780.00;;;;8316102;28;20307;-68
2022/07/24 06:33:02;;;;;;;12.25;10.30;;;;;26.60;96778.00;;;;8311917;28;20288;-66
2022/07/24 06:37:06;;;;;;;14.13;11.57;;;;;26.90;96776.00;;;;8316916;28;20232;-67
2022/07/24 06:41:09;;;;;;;13.95;10.27;;;;;27.50;96784.00;;;;8314843;28;20248;-66
2022/07/24 06:45:12;;;;;;;13.00;9.80;;;;;28.10;96786.00;;;;8318067;28;20225;-67
2022/07/24 06:49:17;;;;;;;11.40;8.90;;;;;28.80;96786.00;;;;8314310;28;20585;-67
2022/07/24 06:53:20;;;;;;;9.80;8.80;;;;;29.30;96784.00;;;;8314448;28;20730;-69
2022/07/24 06:57:25;;;;;;;11.00;7.43;;;;;29.80;96781.00;;;;8311583;28;20230;-67
2022/07/24 07:01:28;;;;;;;10.00;8.27;;;;;30.30;96783.00;;;;8295204;28;20256;-66
2022/07/24 07:05:33;;;;;;;9.77;8.77;;;;;30.60;96783.00;;;;8309213;28;20240;-66
2022/07/24 07:09:36;;;;;;;10.30;8.05;;;;;31.00;96777.00;;;;8310129;28;20225;-66
2022/07/24 07:13:39;;;;;;;11.88;8.20;;;;;31.10;96777.00;;;;8308534;28;20236;-69
2022/07/24 07:17:43;;;;;;;9.10;8.20;;;;;31.60;96777.00;;;;8277304;28;20825;-68
2022/07/24 07:21:48;;;;;;;9.13;7.88;;;;;32.00;96784.00;;;;8294078;28;20229;-68
2022/07/24 07:25:51;;;;;;;11.80;8.57;;;;;32.10;96782.00;;;;8300004;28;20256;-69
2022/07/24 07:29:54;;;;;;;10.68;8.10;;;;;32.40;96781.00;;;;8304809;28;20227;-69
2022/07/24 07:33:57;;;;;;;11.07;8.18;;;;;32.50;96786.00;;;;8320213;28;20226;-68
2022/07/24 07:38:02;;;;;;;9.95;8.15;;;;;32.80;96784.00;;;;8322524;28;20221;-68
2022/07/24 07:42:05;;;;;;;13.20;7.38;;;;;33.10;96790.00;;;;8315421;28;20236;-67
2022/07/24 07:46:09;;;;;;;9.23;8.32;;;;;33.50;96791.00;;;;8313642;28;20251;-67
2022/07/24 07:50:13;;;;;;;8.52;7.63;;;;;33.60;96793.00;;;;8323401;28;20235;-69
2022/07/24 07:54:17;;;;;;;9.25;8.30;;;;;33.70;96793.00;;;;8308669;28;20926;-69
2022/07/24 07:58:22;;;;;;;9.68;7.53;;;;;33.70;96793.00;;;;8308238;28;20227;-69
2022/07/24 08:02:25;;;;;;;9.93;7.53;;;;;33.80;96794.00;;;;8319886;28;20305;-67
2022/07/24 08:06:28;;;;;;;8.32;7.10;;;;;34.10;96800.00;;;;8310213;28;20229;-68
2022/07/24 08:10:33;;;;;;;9.77;7.28;;;;;34.50;96791.00;;;;8304600;28;20232;-68
2022/07/24 08:14:37;;;;;;;8.20;7.38;;;;;34.60;96793.00;;;;8309508;28;20304;-70
2022/07/24 08:18:40;;;;;;;8.27;7.55;;;;;35.10;96798.00;;;;8302202;28;20225;-68
2022/07/24 08:22:44;;;;;;;8.27;7.47;;;;;35.40;96801.00;;;;8299551;28;20213;-69
2022/07/24 08:26:48;;;;;;;8.20;7.13;;;;;35.70;96795.00;;;;8299875;28;20228;-67
2022/07/24 08:30:52;;;;;;;7.72;7.03;;;;;35.70;96793.00;;;;8294268;28;20229;-68
2022/07/24 08:34:56;;;;;;;7.07;6.47;;;;;35.30;96794.00;;;;8313847;28;20221;-67
2022/07/24 08:38:59;;;;;;;7.60;6.63;;;;;35.50;96791.00;;;;8317310;28;20221;-68
2022/07/24 08:43:06;;;;;;;12.27;10.30;;;;;36.00;96790.00;;;;8312110;28;20602;-69
2022/07/24 08:47:09;;;;;;;8.65;6.82;;;;;35.80;96796.00;;;;8318832;28;20584;-67
2022/07/24 08:51:14;;;;;;;23.83;15.35;;;;;35.90;96793.00;;;;8311201;28;20874;-68
2022/07/24 08:55:18;;;;;;;15.38;7.07;;;;;36.50;96798.00;;;;8300971;28;20229;-68
2022/07/24 08:59:24;;;;;;;7.55;6.80;;;;;36.80;96788.00;;;;8306774;28;20315;-68
2022/07/24 09:03:28;;;;;;;8.27;6.50;;;;;37.00;96797.00;;;;8338084;28;20681;-69
2022/07/24 09:07:31;;;;;;;20.88;8.45;;;;;37.40;96788.00;;;;8334935;28;21142;-69
2022/07/24 09:11:37;;;;;;;6.68;6.07;;;;;37.70;96783.00;;;;8333511;28;20309;-67
2022/07/24 09:15:46;;;;;;;9.20;7.18;;;;;38.30;96786.00;;;;8337359;28;20704;-70
2022/07/24 09:19:51;;;;;;;7.25;6.15;;;;;38.60;96791.00;;;;8336816;28;20824;-69
2022/07/24 09:24:01;;;;;;;7.05;6.35;;;;;38.30;96784.00;;;;8335931;28;20235;-69
2022/07/24 09:28:05;;;;;;;6.95;6.25;;;;;38.00;96784.00;;;;8341366;28;20228;-69
2022/07/24 09:32:13;;;;;;;6.80;6.05;;;;;37.20;96788.00;;;;8325861;28;20229;-68
2022/07/24 09:36:18;;;;;;;7.70;6.05;;;;;37.70;96789.00;;;;8331792;28;20574;-69
2022/07/24 09:40:22;;;;;;;6.53;5.85;;;;;38.40;96781.00;;;;8337382;28;20212;-68
2022/07/24 09:44:25;;;;;;;6.32;5.80;;;;;37.90;96781.00;;;;8337586;28;20230;-69
2022/07/24 09:48:32;;;;;;;7.50;6.07;;;;;38.30;96781.00;;;;8343914;28;20706;-69
2022/07/24 09:52:36;;;;;;;7.25;6.57;;;;;38.60;96774.00;;;;8336944;28;20228;-68
2022/07/24 09:56:40;;;;;;;6.57;5.88;;;;;39.10;96777.00;;;;8347115;28;20233;-69
2022/07/24 10:00:44;;;;;;;6.47;5.70;;;;;40.30;96769.00;;;;8340626;28;20221;-69
2022/07/24 10:04:50;;;;;;;7.28;6.25;;;;;40.70;96767.00;;;;8332927;28;20302;-68
2022/07/24 10:08:55;;;;;;;10.00;5.75;;;;;40.20;96765.00;;;;8345238;28;20308;-64
2022/07/24 10:12:58;;;;;;;6.35;5.85;;;;;39.10;96762.00;;;;8343690;28;20581;-68
2022/07/24 10:17:06;;;;;;;7.03;6.32;;;;;37.60;96767.00;;;;8344362;28;20232;-66
2022/07/24 10:21:30;;;;;;;6.85;6.25;;;;;36.50;96768.00;;;;8335649;28;20310;-69
2022/07/24 10:25:48;;;;;;;9.73;6.88;;;;;35.90;96768.00;;;;8344203;28;20327;-67
2022/07/24 10:29:54;;;;;;;13.95;12.52;;;;;35.40;96767.00;;;;8338208;28;20221;-67
2022/07/24 10:34:00;;;;;;;6.25;5.75;;;;;36.30;96758.00;;;;8344646;28;20234;-67
2022/07/24 10:38:13;;;;;;;6.18;5.68;;;;;37.40;96749.00;;;;8347363;28;20323;-67
2022/07/24 10:42:17;;;;;;;7.05;6.35;;;;;37.00;96748.00;;;;8342448;28;20308;-67
2022/07/24 10:46:20;;;;;;;7.65;5.95;;;;;37.10;96750.00;;;;8343463;28;20229;-67
2022/07/24 10:50:24;;;;;;;9.50;7.65;;;;;36.80;96749.00;;;;8344147;28;20877;-67
2022/07/24 10:54:29;;;;;;;14.43;12.43;;;;;37.10;96752.00;;;;8345855;28;20320;-67
2022/07/24 10:58:52;;;;;;;6.75;6.05;;;;;37.30;96739.00;;;;8346546;28;20224;-67
2022/07/24 11:02:57;;;;;;;6.38;5.75;;;;;38.10;96745.00;;;;8345869;28;20334;-68
2022/07/24 11:07:09;;;;;;;5.93;5.43;;;;;39.00;96736.00;;;;8339878;28;20244;-67
2022/07/24 11:11:18;;;;;;;7.40;5.82;;;;;39.10;96734.00;;;;8342935;28;20232;-68
2022/07/24 11:19:43;;;;;;;8.07;5.63;;;;;37.60;96733.00;;;;8334180;28;20250;-66
2022/07/24 11:24:17;;;;;;;6.60;5.28;;;;;36.60;96732.00;;;;8335735;28;20408;-67
2022/07/24 11:28:22;;;;;;;6.45;5.85;;;;;35.80;96725.00;;;;8333326;28;20633;-69
2022/07/24 11:32:29;;;;;;;6.75;5.93;;;;;34.80;96733.00;;;;8329014;28;20225;-67
2022/07/24 11:36:34;;;;;;;7.68;6.45;;;;;33.70;96732.00;;;;8342792;28;20224;-68
2022/07/24 11:40:38;;;;;;;6.80;6.20;;;;;33.50;96724.00;;;;8339486;28;20716;-67
2022/07/24 11:44:45;;;;;;;11.73;6.78;;;;;33.40;96712.00;;;;8332384;28;20228;-66
2022/07/24 11:49:02;;;;;;;7.40;6.70;;;;;33.50;96718.00;;;;8335564;28;20308;-67
2022/07/24 11:53:07;;;;;;;8.30;5.88;;;;;34.90;96709.00;;;;8334355;28;20228;-67
2022/07/24 11:57:21;;;;;;;6.38;5.53;;;;;37.80;96711.00;;;;8343292;28;20228;-67
2022/07/24 12:01:46;;;;;;;8.75;6.18;;;;;39.80;96705.00;;;;8341511;28;20232;-66
2022/07/24 12:05:49;;;;;;;5.93;5.43;;;;;40.90;96710.00;;;;8341756;28;20220;-67
2022/07/24 12:09:55;;;;;;;8.73;5.93;;;;;41.00;96701.00;;;;8337029;28;20230;-69
2022/07/24 12:14:06;;;;;;;6.50;5.65;;;;;40.20;96698.00;;;;8328946;28;20224;-68
2022/07/24 12:18:14;;;;;;;8.40;6.07;;;;;39.30;96700.00;;;;8327571;28;20224;-68
2022/07/24 12:22:18;;;;;;;6.47;5.32;;;;;39.20;96698.00;;;;8341053;28;20232;-68
2022/07/24 12:26:21;;;;;;;6.13;5.60;;;;;39.00;96694.00;;;;8337634;28;20900;-69
2022/07/24 12:30:28;;;;;;;5.95;5.30;;;;;38.60;96693.00;;;;8342108;28;20327;-68
2022/07/24 12:34:42;;;;;;;8.05;5.60;;;;;38.40;96680.00;;;;8343213;28;20244;-68
2022/07/24 12:39:05;;;;;;;7.30;5.45;;;;;37.90;96688.00;;;;8340905;28;20228;-68
2022/07/24 12:43:12;;;;;;;6.07;5.57;;;;;37.60;96673.00;;;;8337125;28;20231;-69
2022/07/24 12:47:15;;;;;;;7.45;5.80;;;;;37.80;96672.00;;;;8329613;28;20307;-70
2022/07/24 12:51:20;;;;;;;5.68;5.18;;;;;37.90;96667.00;;;;8330127;28;20221;-70
2022/07/24 12:55:23;;;;;;;7.88;5.85;;;;;38.00;96664.00;;;;8333524;28;20224;-69
2022/07/24 12:59:29;;;;;;;6.20;5.35;;;;;38.20;96660.00;;;;8334059;28;20432;-70
2022/07/24 13:03:35;;;;;;;6.05;5.55;;;;;38.50;96660.00;;;;8329398;28;20232;-69
2022/07/24 13:07:39;;;;;;;5.60;5.10;;;;;38.70;96653.00;;;;8327061;28;20228;-68
2022/07/24 13:11:45;;;;;;;6.57;5.40;;;;;38.90;96654.00;;;;8331580;28;20228;-70
2022/07/24 13:15:48;;;;;;;5.43;4.93;;;;;39.20;96651.00;;;;8323651;28;20227;-68
2022/07/24 13:19:52;;;;;;;6.00;5.50;;;;;39.30;96652.00;;;;8343810;28;20255;-70
2022/07/24 13:23:57;;;;;;;5.70;5.20;;;;;39.30;96644.00;;;;8346554;28;20224;-70
2022/07/24 13:28:00;;;;;;;8.18;5.40;;;;;39.50;96644.00;;;;8338529;28;20216;-68
2022/07/24 13:32:15;;;;;;;5.75;5.28;;;;;39.80;96636.00;;;;8347086;28;20289;-67
2022/07/24 13:36:25;;;;;;;6.05;5.43;;;;;40.20;96634.00;;;;8348223;28;20228;-69
2022/07/24 13:40:32;;;;;;;5.88;5.35;;;;;40.50;96621.00;;;;8353981;28;20232;-69
2022/07/24 13:44:35;;;;;;;5.50;5.03;;;;;40.90;96628.00;;;;8349189;28;20222;-68
2022/07/24 13:48:39;;;;;;;6.00;5.40;;;;;41.30;96625.00;;;;8350590;28;20866;-67
2022/07/24 13:52:42;;;;;;;5.28;4.82;;;;;41.30;96620.00;;;;8339551;28;20240;-69
2022/07/24 13:56:48;;;;;;;5.88;5.38;;;;;41.40;96616.00;;;;8346025;28;20224;-67
2022/07/24 14:00:51;;;;;;;5.32;4.82;;;;;40.60;96617.00;;;;8344881;28;20239;-68
2022/07/24 14:04:59;;;;;;;6.25;5.75;;;;;40.40;96613.00;;;;8342894;28;20247;-70
2022/07/24 14:09:03;;;;;;;7.25;5.55;;;;;39.50;96602.00;;;;8345834;28;20236;-69
2022/07/24 14:13:08;;;;;;;6.38;5.78;;;;;39.30;96591.00;;;;8348418;28;20553;-67
2022/07/24 14:17:11;;;;;;;5.95;5.45;;;;;39.70;96583.00;;;;8345325;28;20232;-69
2022/07/24 14:21:14;;;;;;;5.97;5.38;;;;;40.70;96576.00;;;;8349892;28;20311;-67
2022/07/24 14:25:17;;;;;;;5.57;5.07;;;;;41.10;96574.00;;;;8344279;28;20247;-68
2022/07/24 14:29:22;;;;;;;8.02;5.68;;;;;41.40;96569.00;;;;8345030;28;20323;-68
2022/07/24 14:33:25;;;;;;;10.32;5.47;;;;;41.70;96576.00;;;;8340829;28;20777;-67
2022/07/24 14:37:28;;;;;;;6.07;5.45;;;;;41.70;96565.00;;;;8343346;28;21230;-68
2022/07/24 14:41:32;;;;;;;5.50;5.00;;;;;41.40;96561.00;;;;8342750;28;20228;-69
2022/07/24 14:45:37;;;;;;;5.70;5.18;;;;;41.80;96564.00;;;;8341502;28;20225;-67
2022/07/24 14:49:40;;;;;;;7.07;5.63;;;;;42.00;96560.00;;;;8338698;28;20227;-68
2022/07/24 14:53:44;;;;;;;5.90;5.40;;;;;42.00;96547.00;;;;8339879;28;20232;-69
2022/07/24 14:57:47;;;;;;;5.68;5.18;;;;;42.20;96556.00;;;;8336672;28;20589;-68
2022/07/24 15:01:52;;;;;;;5.57;5.07;;;;;42.30;96552.00;;;;8342675;28;20254;-68
2022/07/24 15:05:55;;;;;;;5.75;5.35;;;;;42.30;96552.00;;;;8343108;28;20232;-68
2022/07/24 15:09:58;;;;;;;5.38;4.88;;;;;42.40;96548.00;;;;8344268;28;20239;-68
2022/07/24 15:14:01;;;;;;;5.70;5.20;;;;;42.60;96541.00;;;;8344201;28;20225;-68
2022/07/24 15:18:07;;;;;;;6.88;5.50;;;;;42.60;96535.00;;;;8340711;28;20606;-67
2022/07/24 15:22:10;;;;;;;5.72;5.22;;;;;42.40;96529.00;;;;8340068;28;20316;-67
2022/07/24 15:26:13;;;;;;;7.25;5.15;;;;;42.10;96526.00;;;;8341192;28;20685;-67
2022/07/24 15:30:19;;;;;;;6.75;5.53;;;;;42.00;96529.00;;;;8339986;28;20240;-68
2022/07/24 15:34:30;;;;;;;5.75;5.25;;;;;41.20;96524.00;;;;8342400;28;20307;-69
2022/07/24 15:38:34;;;;;;;6.07;5.45;;;;;40.40;96524.00;;;;8355259;28;20234;-70
2022/07/24 15:42:37;;;;;;;6.30;5.40;;;;;39.70;96520.00;;;;8348789;28;20259;-71
2022/07/24 15:46:40;;;;;;;6.95;5.55;;;;;39.50;96514.00;;;;8355455;28;20934;-70
2022/07/24 15:50:53;;;;;;;6.55;5.70;;;;;39.20;96513.00;;;;8350126;28;20236;-70
2022/07/24 15:54:56;;;;;;;6.20;5.70;;;;;39.30;96510.00;;;;8357550;28;20240;-69
2022/07/24 15:59:00;;;;;;;6.30;5.65;;;;;38.80;96502.00;;;;8357571;28;20879;-69
2022/07/24 16:03:04;;;;;;;8.73;6.18;;;;;39.10;96501.00;;;;8352658;28;20232;-68
2022/07/24 16:07:08;;;;;;;5.72;5.20;;;;;39.50;96492.00;;;;8352995;28;20220;-69
2022/07/24 16:11:11;;;;;;;6.70;5.55;;;;;39.80;96485.00;;;;8353298;28;20228;-69
2022/07/24 16:15:15;;;;;;;5.75;5.35;;;;;40.10;96483.00;;;;8357857;28;20235;-69
2022/07/24 16:19:19;;;;;;;6.88;5.20;;;;;40.30;96474.00;;;;8358436;28;20304;-70
2022/07/24 16:23:24;;;;;;;6.60;5.30;;;;;40.10;96462.00;;;;8343832;28;20278;-70
2022/07/24 16:27:27;;;;;;;6.53;5.75;;;;;40.20;96467.00;;;;8346247;28;20232;-70
2022/07/24 16:31:31;;;;;;;6.38;5.40;;;;;40.20;96466.00;;;;8347183;28;20244;-69
2022/07/24 16:35:34;;;;;;;8.40;5.50;;;;;40.40;96462.00;;;;8345497;28;20277;-70
2022/07/24 16:39:39;;;;;;;8.18;5.57;;;;;40.30;96463.00;;;;8340020;28;20251;-70
2022/07/24 16:43:45;;;;;;;10.02;5.57;;;;;39.90;96465.00;;;;8351412;28;20228;-69
2022/07/24 16:47:48;;;;;;;6.18;5.57;;;;;40.00;96467.00;;;;8339766;28;20224;-70
2022/07/24 16:51:51;;;;;;;6.28;5.68;;;;;40.20;96458.00;;;;8327725;28;20233;-69
2022/07/24 16:55:56;;;;;;;5.78;5.35;;;;;40.40;96454.00;;;;8341055;28;20839;-69
2022/07/24 17:00:00;;;;;;;6.18;5.25;;;;;40.40;96457.00;;;;8339719;28;20685;-70
2022/07/24 17:04:03;;;;;;;7.18;5.35;;;;;40.40;96462.00;;;;8347126;28;20232;-69
2022/07/24 17:08:07;;;;;;;5.35;4.95;;;;;40.50;96458.00;;;;8345937;28;20227;-69
2022/07/24 17:12:12;;;;;;;6.20;5.72;;;;;40.60;96453.00;;;;8343119;28;20244;-71
2022/07/24 17:16:15;;;;;;;6.10;5.60;;;;;40.70;96459.00;;;;8337946;28;20235;-70
2022/07/24 17:20:19;;;;;;;6.95;5.80;;;;;40.60;96456.00;;;;8341712;28;20224;-70
2022/07/24 17:24:22;;;;;;;5.60;5.20;;;;;40.40;96459.00;;;;8342992;28;20273;-71
2022/07/24 17:28:27;;;;;;;5.60;5.10;;;;;40.30;96460.00;;;;8341937;28;20229;-72
2022/07/24 17:32:31;;;;;;;5.95;5.35;;;;;40.00;96459.00;;;;8344224;28;20232;-71
2022/07/24 17:36:34;;;;;;;5.88;5.38;;;;;40.00;96455.00;;;;8345069;28;20596;-69
2022/07/24 17:40:38;;;;;;;6.22;5.63;;;;;39.80;96455.00;;;;8345617;28;20682;-71
2022/07/24 17:44:42;;;;;;;6.55;5.68;;;;;39.70;96456.00;;;;8340239;28;20612;-70
2022/07/24 17:48:46;;;;;;;5.80;5.20;;;;;39.70;96458.00;;;;8343590;28;20235;-70
2022/07/24 17:52:50;;;;;;;6.93;5.22;;;;;39.40;96454.00;;;;8344275;28;20370;-72
2022/07/24 17:56:53;;;;;;;6.57;5.85;;;;;39.10;96456.00;;;;8336514;28;20772;-70
2022/07/24 18:00:58;;;;;;;6.82;5.53;;;;;38.90;96445.00;;;;8343791;28;20624;-68
2022/07/24 18:05:01;;;;;;;6.13;5.53;;;;;38.30;96452.00;;;;8345393;28;20231;-70
2022/07/24 18:09:05;;;;;;;8.30;6.43;;;;;37.40;96455.00;;;;8344449;28;20244;-67
2022/07/24 18:13:08;;;;;;;7.18;5.63;;;;;36.50;96455.00;;;;8350327;28;20238;-69
2022/07/24 18:17:13;;;;;;;96.80;13.75;;;;;35.70;96445.00;;;;8349694;28;20225;-68
2022/07/24 18:21:17;;;;;;;9.93;6.53;;;;;34.80;96452.00;;;;8347292;28;20660;-71
2022/07/24 18:25:20;;;;;;;6.72;5.90;;;;;33.90;96447.00;;;;8345076;28;20274;-69
2022/07/24 18:29:28;;;;;;;10.80;6.68;;;;;33.00;96443.00;;;;8346333;28;20232;-70
2022/07/24 18:33:33;;;;;;;16.20;6.85;;;;;32.20;96443.00;;;;8349821;28;20234;-69
2022/07/24 18:37:37;;;;;;;35.03;7.50;;;;;31.50;96443.00;;;;8346299;28;20236;-72
2022/07/24 18:41:40;;;;;;;14.32;6.78;;;;;30.80;96450.00;;;;8351184;28;20307;-70
2022/07/24 18:45:44;;;;;;;14.27;6.82;;;;;30.30;96441.00;;;;8348924;28;20226;-74
2022/07/24 18:49:49;;;;;;;55.78;9.90;;;;;29.80;96439.00;;;;8353210;28;20232;-69
2022/07/24 18:53:55;;;;;;;101.53;12.90;;;;;29.30;96444.00;;;;8346666;28;20307;-69
2022/07/24 18:57:58;;;;;;;48.88;9.70;;;;;28.90;96440.00;;;;8343247;28;20225;-70
2022/07/24 19:02:01;;;;;;;16.73;7.72;;;;;28.50;96448.00;;;;8339643;28;20242;-67
2022/07/24 19:06:07;;;;;;;34.78;8.75;;;;;28.10;96441.00;;;;8344370;28;20232;-69
2022/07/24 19:10:11;;;;;;;38.35;10.13;;;;;27.80;96442.00;;;;8347219;28;20319;-68
2022/07/24 19:14:15;;;;;;;55.65;11.18;;;;;27.50;96448.00;;;;8347135;28;20250;-69
2022/07/24 19:18:18;;;;;;;118.95;15.20;;;;;27.30;96443.00;;;;8342210;28;20220;-69
2022/07/24 19:22:23;;;;;;;100.15;13.05;;;;;27.20;96445.00;;;;8343500;28;20233;-69
2022/07/24 19:26:26;;;;;;;189.55;21.83;;;;;27.10;96450.00;;;;8344320;28;20236;-70
2022/07/24 19:30:29;;;;;;;42.30;10.75;;;;;27.00;96449.00;;;;8343872;28;20240;-69
2022/07/24 19:34:37;;;;;;;51.60;10.60;;;;;26.80;96452.00;;;;8341809;28;20221;-68
2022/07/24 19:38:42;;;;;;;23.27;7.93;;;;;26.70;96452.00;;;;8343586;28;20559;-68
2022/07/24 19:42:45;;;;;;;21.38;7.40;;;;;26.50;96453.00;;;;8343459;28;20658;-67
2022/07/24 19:46:49;;;;;;;15.50;7.07;;;;;26.40;96455.00;;;;8345816;28;20232;-69
2022/07/24 19:50:53;;;;;;;9.27;7.03;;;;;26.20;96450.00;;;;8343551;28;20238;-68
2022/07/24 19:55:17;;;;;;;10.05;7.35;;;;;26.10;96450.00;;;;8339781;28;20228;-69
2022/07/24 19:59:21;;;;;;;10.90;7.15;;;;;26.00;96451.00;;;;8340103;28;20232;-70
2022/07/24 20:03:24;;;;;;;7.00;6.20;;;;;25.90;96443.00;;;;8341191;28;20243;-68
2022/07/24 20:07:27;;;;;;;9.70;6.82;;;;;25.90;96448.00;;;;8345584;28;20228;-69
2022/07/24 20:11:34;;;;;;;7.05;6.35;;;;;25.90;96445.00;;;;8347699;28;20275;-68
2022/07/24 20:15:37;;;;;;;8.50;6.57;;;;;25.90;96446.00;;;;8342747;28;20662;-67